Hyannis, Massachusetts
Current Conditions -  °F | °C
As of 4:40 PM on Wednesday 26 Nov 2014 (Local Time) from KHYA Reporting Station
Heavy Rain Heavy Rain  
Wind Chill: 37°   Ceiling: 800
Heat Index: 45°   Visibility: 2.5mi
Dew Point: 43°   Wind: 18mph
Humidity: 93%   Direction: 40°NE
Pressure: 29.81"   Gusts: 30mph
Location:  41.65°N, 70.28°W
Report Text: KHYA 262140Z 04016G26KT 2 1/2SM +RA BR BKN008 BKN013 OVC024 07/06 A2981 RMK AO2 PK WND 05028/2130 P0031 T00720061
Loading
Personal Weather Stations






























Interactive Weather Map New forecast layout! Learn more

10-Day Weather Forecast

Advertisements
Track Severe Weather on mobile